Wednesday, April 25, 2018, 1:00 AM EDT

KRIC, Richmond International Airport

Location: Sandston, VA, United States Lat: 37.517
Local Time: 1:00 AM EDT ( 5:00 GMT) Lon: -77.317
Time Zone: US/Eastern Elev: 167 ft

Show me the last for .
Show Decoded

2018-04-25 00:42 METAR KRIC 250442Z 09004KT 4SM BR FEW005 BKN009 OVC017 15/15 A2986 RMK AO2 RAE22
                 P0006 T01500150 $ =
2018-04-25 00:40 METAR KRIC 250440Z 08004KT 4SM BR BKN010 BKN017 OVC022 15/15 A2986 RMK AO2 RAE22
                 P0006 T01500150 =
2018-04-25 00:19 METAR KRIC 250419Z 07004KT 9SM -RA BKN022 BKN029 OVC065 15/15 A2986 RMK AO2
                 P0006 T01500150 =
2018-04-25 00:04 METAR KRIC 250404Z 09006KT 3SM RA BR SCT006 BKN030 OVC080 15/15 A2987 RMK AO2
                 P0004 T01500150 =
2018-04-24 23:54 METAR KRIC 250354Z 11006KT 1 3/4SM +RA BR FEW005 BKN025 OVC080 15/15 A2988 RMK
                 AO2 SLP121 P0034 T01500150 =
2018-04-24 23:52 METAR KRIC 250352Z 11007KT 1 3/4SM +RA BR FEW009 BKN027 OVC080 15/15 A2988 RMK
                 AO2 P0033 =
2018-04-24 23:46 METAR KRIC 250346Z 11005KT 2 1/2SM +RA BR FEW013 BKN030 OVC085 15/15 A2988 RMK
                 AO2 P0025 T01500150 =
2018-04-24 23:33 METAR KRIC 250333Z 12008KT 3SM RA BR FEW004 SCT010 OVC028 15/15 A2988 RMK AO2
                 P0020 T01500150 =
2018-04-24 23:14 METAR KRIC 250314Z 13006KT 2SM R34/5500VP6000FT +RA BR BKN004 BKN008 OVC015
                 14/14 A2989 RMK AO2 P0005 T01440144 =
2018-04-24 22:54 METAR KRIC 250254Z 11007KT 5SM -RA BR BKN006 OVC011 14/14 A2989 RMK AO2 RAB03
                 CIG 003V009 SLP127 P0002 60006 T01440144 56012 =
2018-04-24 22:29 METAR KRIC 250229Z 10007KT 4SM -RA BR OVC004 14/14 A2990 RMK AO2 RAB03 P0001
                 T01440144 =
2018-04-24 22:15 METAR KRIC 250215Z 09008KT 2SM -RA BR OVC004 14/14 A2989 RMK AO2 RAB03 P0001
                 T01440144 =
2018-04-24 21:54 METAR KRIC 250154Z 09006KT 4SM BR OVC005 14/14 A2990 RMK AO2 RAE44 SLP130 P0001
                 T01440144 =
2018-04-24 21:45 METAR KRIC 250145Z 09007KT 4SM BR OVC005 14/14 A2990 RMK AO2 RAE44 P0001
                 T01440144 =
2018-04-24 21:33 METAR KRIC 250133Z 09007KT 2SM -RA BR OVC005 14/14 A2991 RMK AO2 P0001 T01440144
                 =
2018-04-24 20:54 METAR KRIC 250054Z 08007KT 3SM -RA BR OVC007 14/14 A2991 RMK AO2 CIG 004V012
                 SLP134 P0003 T01440144 =
2018-04-24 20:22 METAR KRIC 250022Z 08007KT 3SM -RA BR BKN005 OVC010 14/14 A2992 RMK AO2 P0002
                 T01440144 =
2018-04-24 20:11 METAR KRIC 250011Z 08009KT 2 1/2SM -RA BR BKN005 OVC010 14/14 A2993 RMK AO2
                 P0001 T01440144 =
2018-04-24 19:54 METAR KRIC 242354Z 10008KT 7SM -RA OVC005 14/14 A2993 RMK AO2 RAE33B53 SLP139
                 P0002 60026 T01440144 10144 20139 56018 =
2018-04-24 19:31 METAR KRIC 242331Z 09009KT 4SM -RA BR OVC006 14/14 A2993 RMK AO2 P0002 T01440144
                 =
2018-04-24 19:23 METAR KRIC 242323Z 09009KT 2 1/2SM -RA BR OVC006 14/14 A2993 RMK AO2 P0001
                 T01440144 =
2018-04-24 19:04 METAR KRIC 242304Z 09008KT 1 1/2SM -RA BR OVC007 14/14 A2994 RMK AO2 CIG 005V011
                 P0001 T01390139 =
2018-04-24 18:54 METAR KRIC 242254Z 09008KT 2SM -RA BR OVC007 14/14 A2994 RMK AO2 CIG 005V011
                 SLP145 P0002 T01390139 =
2018-04-24 18:06 METAR KRIC 242206Z 09009KT 1 1/2SM R34/6000VP6000FT -RA BR OVC007 14/14 A2997
                 RMK AO2 CIG 006V012 P0001 T01390139 =
2018-04-24 17:54 METAR KRIC 242154Z 09011KT 2SM -RA BR OVC009 14/14 A2997 RMK AO2 CIG 006V014
                 SLP153 P0000 T01390139 =
2018-04-24 17:44 METAR KRIC 242144Z 09014G18KT 2 1/2SM -RA BR OVC010 14/14 A2997 RMK AO2 CIG
                 006V012 P0000 T01390139 =
2018-04-24 17:30 METAR KRIC 242130Z 09011KT 4SM -RA BR BKN010 OVC015 14/14 A2997 RMK AO2 CIG
                 006V012 P0000 T01390139 =
2018-04-24 17:10 METAR KRIC 242110Z 09010G18KT 4SM -RA BR BKN009 OVC016 14/14 A2998 RMK AO2 CIG
                 006V012 P0000 T01390139 =
2018-04-24 16:54 METAR KRIC 242054Z 09012G22KT 2SM -RA BR BKN007 OVC013 14/14 A2998 RMK AO2 CIG
                 006V011 SLP158 P0006 60022 T01390139 56018 =
2018-04-24 16:25 METAR KRIC 242025Z 10014G22KT 1 1/2SM -RA BR BKN009 OVC013 14/14 A3000 RMK AO2
                 P0003 T01390139 =
2018-04-24 16:07 METAR KRIC 242007Z 10013G22KT 1 1/4SM R34/6000VP6000FT -RA BR OVC010 14/14 A3000
                 RMK AO2 CIG 006V013 P0001 T01390139 =
2018-04-24 15:54 METAR KRIC 241954Z 09014G19KT 2 1/2SM -RA BR BKN010 OVC017 14/14 A3000 RMK AO2
                 CIG 007V014 SLP165 P0010 T01390139 =
2018-04-24 15:50 METAR KRIC 241950Z 09013KT 2SM -RA BR BKN010 OVC017 14/14 A3000 RMK AO2 CIG
                 007V014 P0010 =
2018-04-24 15:37 METAR KRIC 241937Z 10014G20KT 4SM RA BR BKN010 BKN014 OVC020 14/14 A3002 RMK AO2
                 CIG 007V012 P0007 T01440144 =
2018-04-24 15:12 METAR KRIC 241912Z 10013G25KT 2 1/2SM RA BR BKN010 BKN013 OVC018 14/14 A3003 RMK
                 AO2 P0002 T01440144 =
2018-04-24 14:54 METAR KRIC 241854Z 10015G24KT 4SM -RA BR BKN010 OVC017 14/14 A3004 RMK AO2 PK
                 WND 10026/1838 SLP176 P0006 T01440144 =
2018-04-24 13:54 METAR KRIC 241754Z 09010KT 7SM -RA OVC012 14/14 A3009 RMK AO2 SLP193 P0005 60028
                 T01390139 10139 20117 58029 =
2018-04-24 13:17 METAR KRIC 241717Z 10014G20KT 4SM RA BR OVC014 14/14 A3011 RMK AO2 P0002
                 T01390139 =
2018-04-24 12:54 METAR KRIC 241654Z 10015G20KT 4SM -RA BR OVC015 14/14 A3012 RMK AO2 SLP203 P0003
                 T01390139 =
2018-04-24 12:23 METAR KRIC 241623Z 10014KT 6SM -RA BR BKN015 OVC070 14/14 A3014 RMK AO2 P0001
                 T01390139 =
2018-04-24 11:54 METAR KRIC 241554Z 10015KT 5SM -RA BR FEW013 SCT032 OVC065 14/14 A3015 RMK AO2
                 SLP215 P0006 T01390139 =
2018-04-24 11:38 METAR KRIC 241538Z 10014G20KT 5SM -RA BR FEW013 SCT027 OVC065 14/14 A3016 RMK
                 AO2 P0005 T01390139 =
2018-04-24 11:21 METAR KRIC 241521Z 10014G19KT 5SM -RA BR SCT014 BKN027 OVC060 13/13 A3017 RMK
                 AO2 P0003 T01330133 =
2018-04-24 10:54 METAR KRIC 241454Z 11015KT 3SM RA BR FEW012 SCT027 OVC060 13/13 A3017 RMK AO2
                 SLP222 P0006 60014 T01330133 58010 =
2018-04-24 09:54 METAR KRIC 241354Z 10012G19KT 5SM -RA BR SCT036 BKN070 OVC085 13/13 A3018 RMK
                 AO2 SLP226 P0005 T01330133 =
2018-04-24 08:54 METAR KRIC 241254Z 08009KT 5SM -RA BR SCT035 BKN044 OVC075 13/13 A3019 RMK AO2
                 SLP229 P0003 T01280128 =
2018-04-24 07:54 METAR KRIC 241154Z 06008KT 6SM -RA BR FEW035 BKN060 OVC100 12/12 A3020 RMK AO2
                 SLP232 P0002 60002 70002 T01170117 10128 20117 58004 =
2018-04-24 06:54 METAR KRIC 241054Z 06008KT 7SM -RA BKN045 OVC090 12/11 A3021 RMK AO2 SLP235
                 P0000 T01170106 =
2018-04-24 05:54 METAR KRIC 240954Z 06007KT 10SM -RA FEW040 OVC100 13/09 A3021 RMK AO2 RAB47
                 SLP234 P0000 T01280089 =
2018-04-24 04:54 METAR KRIC 240854Z 06009KT 10SM FEW045 BKN100 OVC150 13/08 A3022 RMK AO2 SLP237
                 T01280078 58020 =
2018-04-24 03:54 METAR KRIC 240754Z 07008KT 10SM SCT045 OVC100 13/07 A3025 RMK AO2 SLP247
                 T01280072 =
2018-04-24 02:54 METAR KRIC 240654Z 05006KT 10SM SCT045 OVC100 13/06 A3026 RMK AO2 SLP253
                 T01280061 =
2018-04-24 01:54 METAR KRIC 240554Z 08007KT 10SM FEW040 SCT110 OVC150 13/06 A3028 RMK AO2 SLP257
                 T01280056 10150 20122 58018 =

Support USWX by starting your Amazon purchase here.